Pagina principale
METAR-TAF:

METAR-TAF

Aeroporti :

Wattisham, Inghilterra

latitudine: 52-07N, longitudine: 000-58E, altezza: 87 m

Osservazione

Il bollettino è stato emesso 36 minuti fa, alle 07:50 UTC
Vento 7 kt da sud/sud-ovest
Temperature 2°C
Umidità 93%
Pressione 1006 hPa
Visibilità 10 km o più
nessuna nube inferiore a 1500 m e nessun cumulonembo

METAR: EGUW 110750Z 21007KT CAVOK 02/01 Q1006 NOSIG RMK BLU BLU

Ora: 08:26 (08:26 UTC)

Previsione

Il bollettino è stato emesso 48 minuti fa, alle 07:38 UTC
Previsione valida dal 11 alle 07 UTC al 11 alle 15 UTC
Vento 10 kt da sud/sud-ovest
Visibilità 10 km o più
nessuna nube inferiore a 1500 m e nessun cumulonembo

TAF: EGUW 110738Z 1107/1115 21010KT CAVOK

Osservazioni e previsioni meteorologiche di più di 4000 aeroporti (messaggi METAR e TAF).

Le stazioni disponibili sono rappresentate dai dischi gialli e rossi sulla carta.

Puntare il mouse per vedere il nome della stazione.

Clicca sopra per visualizzare le osservazioni e previsioni meteorologiche.

Per cambiare la mappa : fare clic sui pulsanti verdi con una croce nera per ingrandire, il pulsante verde con un trattino per diminuire, o sulla freccia verde per le mappe adiacenti.


METAR-TAF: